Time;durP1;ratioP1;P1;durP2;ratioP2;P2;SDS_P1;SDS_P2;PMS_P1;PMS_P2;Temp;Humidity;BMP_temperature;BMP_pressure;BME280_temperature;BME280_humidity;BME280_pressure;Samples;Min_cycle;Max_cycle;Signal;HPM_P1;HPM_P2
2021/01/13 00:01:18;;;;;;;11.37;2.40;;;;;;;;;;10280374;28;20633;-81
2021/01/13 00:06:20;;;;;;;12.83;2.50;;;;;;;;;;10280891;28;20287;-83
2021/01/13 00:11:23;;;;;;;11.50;2.43;;;;;;;;;;10284301;28;20680;-83
2021/01/13 00:16:25;;;;;;;9.87;2.60;;;;;;;;;;10274366;28;20227;-82
2021/01/13 00:21:27;;;;;;;10.03;2.47;;;;;;;;;;10275154;28;20218;-82
2021/01/13 00:26:29;;;;;;;6.93;2.53;;;;;;;;;;10276534;28;20233;-82
2021/01/13 00:31:31;;;;;;;12.30;2.50;;;;;;;;;;10278545;28;20217;-82
2021/01/13 00:36:33;;;;;;;8.47;2.30;;;;;;;;;;10280694;28;20738;-83
2021/01/13 00:41:37;;;;;;;5.83;1.90;;;;;;;;;;10272233;28;20217;-83
2021/01/13 00:46:40;;;;;;;10.60;2.33;;;;;;;;;;10280125;28;20233;-84
2021/01/13 00:51:43;;;;;;;8.83;1.90;;;;;;;;;;10297045;28;20709;-83
2021/01/13 00:56:46;;;;;;;6.80;1.70;;;;;;;;;;10295587;28;20230;-84
2021/01/13 01:01:48;;;;;;;6.93;1.90;;;;;;;;;;10281055;28;20245;-83
2021/01/13 01:06:50;;;;;;;6.93;1.90;;;;;;;;;;10275129;28;20272;-83
2021/01/13 01:11:53;;;;;;;5.50;1.90;;;;;;;;;;10282298;28;20233;-83
2021/01/13 01:16:55;;;;;;;7.60;1.90;;;;;;;;;;10278341;28;20215;-83
2021/01/13 01:21:57;;;;;;;4.73;1.60;;;;;;;;;;10291333;28;20416;-83
2021/01/13 01:27:00;;;;;;;8.07;1.80;;;;;;;;;;10283326;28;20810;-83
2021/01/13 01:32:02;;;;;;;7.73;2.00;;;;;;;;;;10267971;28;20238;-83
2021/01/13 01:37:04;;;;;;;7.43;1.60;;;;;;;;;;10288475;28;20228;-83
2021/01/13 01:42:10;;;;;;;6.87;1.90;;;;;;;;;;10269795;28;20210;-82
2021/01/13 01:47:12;;;;;;;6.10;1.67;;;;;;;;;;10271710;28;20708;-83
2021/01/13 01:52:16;;;;;;;7.93;2.03;;;;;;;;;;10279364;28;20566;-83
2021/01/13 01:57:20;;;;;;;10.00;2.13;;;;;;;;;;10281629;28;20323;-84
2021/01/13 02:02:24;;;;;;;7.50;1.80;;;;;;;;;;10282852;28;20594;-83
2021/01/13 02:07:30;;;;;;;8.50;1.80;;;;;;;;;;10279671;28;20276;-83
2021/01/13 02:12:34;;;;;;;10.00;2.07;;;;;;;;;;10280461;28;20696;-84
2021/01/13 02:17:36;;;;;;;9.90;2.10;;;;;;;;;;10280926;28;20680;-84
2021/01/13 02:22:40;;;;;;;4.70;1.70;;;;;;;;;;10282565;28;20245;-83
2021/01/13 02:27:51;;;;;;;8.50;1.83;;;;;;;;;;10280065;28;20909;-84
2021/01/13 02:32:55;;;;;;;6.77;1.57;;;;;;;;;;10276369;28;20226;-83
2021/01/13 02:38:06;;;;;;;4.43;1.47;;;;;;;;;;10287529;28;20233;-84
2021/01/13 02:43:09;;;;;;;7.17;1.50;;;;;;;;;;10278303;28;20790;-83
2021/01/13 02:48:15;;;;;;;4.23;1.37;;;;;;;;;;10285529;28;20228;-84
2021/01/13 11:45:53;;;;;;;9.83;2.33;;;;;;;;;;10240059;23;20317;-82
2021/01/13 11:50:59;;;;;;;9.07;2.20;;;;;;;;;;10244938;28;20210;-82
2021/01/13 11:56:04;;;;;;;9.93;2.40;;;;;;;;;;10237502;28;20215;-82
2021/01/13 12:01:11;;;;;;;9.03;3.30;;;;;;;;;;10245731;28;20227;-83
2021/01/13 12:06:13;;;;;;;10.93;2.03;;;;;;;;;;10245069;28;20280;-82
2021/01/13 12:11:15;;;;;;;7.80;2.20;;;;;;;;;;10251306;28;20223;-82
2021/01/13 12:16:18;;;;;;;9.10;2.07;;;;;;;;;;10236815;28;20222;-81
2021/01/13 12:21:27;;;;;;;10.37;2.43;;;;;;;;;;10248235;28;20218;-83
2021/01/13 12:26:31;;;;;;;12.00;2.30;;;;;;;;;;10237898;28;20659;-84
2021/01/13 12:31:35;;;;;;;10.30;2.13;;;;;;;;;;10243207;28;20304;-86
2021/01/13 12:36:38;;;;;;;8.73;2.00;;;;;;;;;;10239093;28;20214;-80
2021/01/13 12:41:42;;;;;;;14.10;2.40;;;;;;;;;;10236492;28;20294;-80
2021/01/13 12:46:48;;;;;;;10.63;2.90;;;;;;;;;;10211088;28;21231;-81
2021/01/13 12:51:51;;;;;;;9.73;2.37;;;;;;;;;;10207978;28;20245;-83
2021/01/13 12:56:55;;;;;;;9.97;2.57;;;;;;;;;;10205801;28;20246;-93
2021/01/13 13:02:01;;;;;;;17.23;2.67;;;;;;;;;;10231491;28;20270;-92
2021/01/13 13:07:05;;;;;;;7.83;2.20;;;;;;;;;;10223704;28;20663;-91
2021/01/13 13:12:09;;;;;;;9.90;2.50;;;;;;;;;;10220104;28;20216;-89
2021/01/13 13:17:14;;;;;;;11.67;2.30;;;;;;;;;;10207441;28;20338;-89
2021/01/13 13:22:16;;;;;;;7.50;2.43;;;;;;;;;;10227125;28;20748;-90
2021/01/13 13:32:52;;;;;;;9.23;2.33;;;;;;;;;;10849709;23;20238;-86
2021/01/13 13:37:55;;;;;;;7.50;2.57;;;;;;;;;;10171180;28;21111;-87
2021/01/13 13:43:08;;;;;;;11.90;2.63;;;;;;;;;;10191496;28;20485;-85
2021/01/13 13:48:11;;;;;;;15.73;2.73;;;;;;;;;;10184820;28;20219;-86
2021/01/13 13:53:14;;;;;;;10.60;2.43;;;;;;;;;;10191167;28;20283;-86
2021/01/13 13:58:16;;;;;;;10.13;2.70;;;;;;;;;;10193223;28;20239;-87
2021/01/13 14:03:23;;;;;;;7.73;2.33;;;;;;;;;;10185662;28;20794;-87
2021/01/13 14:08:27;;;;;;;9.23;2.83;;;;;;;;;;10131493;29;20231;-87
2021/01/13 14:13:46;;;;;;;12.40;2.80;;;;;;;;;;10411766;23;20210;-82
2021/01/13 14:19:03;;;;;;;12.37;3.00;;;;;;;;;;10137912;29;20227;-86
2021/01/13 14:24:06;;;;;;;6.97;2.23;;;;;;;;;;10154018;29;20250;-84
2021/01/13 14:29:07;;;;;;;13.50;2.60;;;;;;;;;;10161491;29;20227;-86
2021/01/13 14:34:10;;;;;;;10.47;2.43;;;;;;;;;;10167886;29;20270;-85
2021/01/13 14:39:15;;;;;;;12.10;3.10;;;;;;;;;;10230450;23;20726;-89
2021/01/13 14:44:17;;;;;;;11.27;2.90;;;;;;;;;;10222041;29;20239;-89
2021/01/13 14:49:20;;;;;;;10.17;2.30;;;;;;;;;;10225774;29;20702;-90
2021/01/13 14:54:22;;;;;;;12.93;3.40;;;;;;;;;;10211117;29;20227;-82
2021/01/13 14:59:26;;;;;;;14.27;3.70;;;;;;;;;;10184353;23;20623;-81
2021/01/13 15:04:28;;;;;;;10.90;3.13;;;;;;;;;;10168397;29;20766;-82
2021/01/13 15:09:31;;;;;;;12.13;2.80;;;;;;;;;;10172443;29;20641;-82
2021/01/13 15:14:33;;;;;;;8.90;2.30;;;;;;;;;;10166956;29;20701;-82
2021/01/13 15:19:36;;;;;;;10.40;2.40;;;;;;;;;;10169592;29;20293;-82
2021/01/13 15:24:38;;;;;;;8.73;2.50;;;;;;;;;;10169019;29;20856;-87
2021/01/13 15:29:40;;;;;;;12.20;2.47;;;;;;;;;;10175975;29;20212;-81
2021/01/13 15:34:47;;;;;;;17.30;3.03;;;;;;;;;;10188175;29;20319;-81
2021/01/13 15:39:51;;;;;;;16.30;3.27;;;;;;;;;;10173175;29;20242;-81
2021/01/13 15:44:57;;;;;;;11.70;3.17;;;;;;;;;;10174558;29;20235;-81
2021/01/13 15:50:18;;;;;;;13.70;2.87;;;;;;;;;;10179498;29;20688;-79
2021/01/13 15:55:21;;;;;;;10.60;3.13;;;;;;;;;;10177288;29;20290;-80
2021/01/13 16:00:24;;;;;;;10.73;2.43;;;;;;;;;;10162262;23;20254;-79
2021/01/13 16:05:27;;;;;;;14.17;3.03;;;;;;;;;;10177701;29;20239;-79
2021/01/13 16:10:29;;;;;;;11.50;2.97;;;;;;;;;;10182601;28;20608;-80
2021/01/13 16:20:49;;;;;;;16.90;2.83;;;;;;;;;;12305629;23;20324;-76
2021/01/13 16:25:51;;;;;;;14.43;3.20;;;;;;;;;;10107460;29;20255;-75
2021/01/13 16:30:53;;;;;;;9.13;2.60;;;;;;;;;;10106652;29;20222;-76
2021/01/13 16:35:56;;;;;;;13.10;2.60;;;;;;;;;;10175586;23;20423;-83
2021/01/13 16:40:58;;;;;;;12.40;2.73;;;;;;;;;;10157091;29;20278;-82
2021/01/13 16:46:04;;;;;;;15.47;2.87;;;;;;;;;;10152528;28;20246;-77
2021/01/13 16:51:08;;;;;;;13.30;2.67;;;;;;;;;;10172146;29;20485;-81
2021/01/13 16:56:13;;;;;;;9.47;2.53;;;;;;;;;;10162035;28;20228;-79
2021/01/13 17:01:19;;;;;;;11.17;2.77;;;;;;;;;;10495174;23;20633;-85
2021/01/13 17:06:23;;;;;;;8.63;2.43;;;;;;;;;;10167301;28;20247;-81
2021/01/13 17:11:25;;;;;;;15.70;3.00;;;;;;;;;;10169429;28;20219;-86
2021/01/13 17:22:00;;;;;;;14.57;3.70;;;;;;;;;;10323829;23;20236;-76
2021/01/13 17:27:02;;;;;;;8.27;2.80;;;;;;;;;;10129259;29;20678;-78
2021/01/13 17:32:03;;;;;;;8.13;2.50;;;;;;;;;;11191705;23;21820;-76
2021/01/13 17:37:06;;;;;;;13.20;2.77;;;;;;;;;;10161450;29;20216;-76
2021/01/13 17:42:13;;;;;;;11.07;2.70;;;;;;;;;;10163214;29;20234;-76
2021/01/13 17:47:20;;;;;;;11.80;2.60;;;;;;;;;;10188259;29;20322;-89
2021/01/13 17:52:23;;;;;;;12.43;2.50;;;;;;;;;;10165509;29;20211;-80
2021/01/13 17:57:25;;;;;;;14.80;2.87;;;;;;;;;;10293347;23;20411;-78
2021/01/13 18:02:33;;;;;;;10.63;2.83;;;;;;;;;;10126356;29;20667;-90
2021/01/13 18:07:36;;;;;;;12.30;2.20;;;;;;;;;;10139777;29;20298;-82
2021/01/13 18:12:39;;;;;;;10.10;2.50;;;;;;;;;;10138989;29;20212;-78
2021/01/13 18:17:40;;;;;;;9.10;2.80;;;;;;;;;;11176965;23;20753;-82
2021/01/13 18:22:43;;;;;;;13.27;3.03;;;;;;;;;;10154760;28;20637;-79
2021/01/13 18:27:45;;;;;;;8.07;2.53;;;;;;;;;;10161175;29;20845;-81
2021/01/13 18:32:47;;;;;;;10.83;2.50;;;;;;;;;;10138677;29;20314;-86
2021/01/13 18:37:51;;;;;;;10.87;2.50;;;;;;;;;;10144832;29;20310;-82
2021/01/13 18:42:59;;;;;;;11.47;2.73;;;;;;;;;;10139255;29;20231;-81
2021/01/13 18:48:01;;;;;;;9.83;2.30;;;;;;;;;;10140993;29;20255;-81
2021/01/13 18:53:04;;;;;;;10.43;2.70;;;;;;;;;;10162111;29;20731;-81
2021/01/13 18:58:06;;;;;;;14.13;2.57;;;;;;;;;;10203059;29;20254;-86
2021/01/13 19:03:08;;;;;;;15.43;2.60;;;;;;;;;;10184595;29;20809;-82
2021/01/13 19:08:10;;;;;;;9.80;2.40;;;;;;;;;;10194995;29;20243;-83
2021/01/13 19:13:12;;;;;;;10.80;2.67;;;;;;;;;;10194636;29;20231;-86
2021/01/13 19:18:14;;;;;;;9.77;2.37;;;;;;;;;;10196327;29;20224;-84
2021/01/13 19:23:17;;;;;;;10.47;2.47;;;;;;;;;;10181008;29;20318;-83
2021/01/13 19:28:19;;;;;;;9.27;2.70;;;;;;;;;;10165845;29;20250;-84
2021/01/13 19:33:22;;;;;;;14.37;2.90;;;;;;;;;;10154871;29;20217;-85
2021/01/13 19:38:25;;;;;;;14.07;2.70;;;;;;;;;;10152266;29;20219;-83
2021/01/13 19:43:27;;;;;;;8.97;2.37;;;;;;;;;;10153011;29;20247;-85
2021/01/13 19:48:29;;;;;;;8.70;2.57;;;;;;;;;;10145201;29;20673;-85
2021/01/13 19:53:32;;;;;;;8.87;2.67;;;;;;;;;;10146552;29;20716;-83
2021/01/13 19:58:34;;;;;;;10.50;2.63;;;;;;;;;;10141367;29;20254;-85
2021/01/13 20:03:36;;;;;;;12.93;3.17;;;;;;;;;;10144122;29;20586;-84
2021/01/13 20:08:39;;;;;;;11.30;2.53;;;;;;;;;;10146029;29;20217;-83
2021/01/13 20:13:41;;;;;;;12.50;3.20;;;;;;;;;;10147036;29;20226;-84
2021/01/13 20:18:42;;;;;;;21.00;4.40;;;;;;;;;;10145096;29;20696;-82
2021/01/13 20:23:45;;;;;;;22.27;5.43;;;;;;;;;;10144676;29;20721;-82
2021/01/13 20:28:47;;;;;;;13.90;3.27;;;;;;;;;;10143514;29;20440;-85
2021/01/13 20:33:49;;;;;;;14.93;3.93;;;;;;;;;;10145192;29;20418;-84
2021/01/13 20:38:52;;;;;;;13.93;2.70;;;;;;;;;;10149631;29;20211;-83
2021/01/13 20:43:54;;;;;;;15.13;3.13;;;;;;;;;;10139303;29;20477;-83
2021/01/13 20:48:56;;;;;;;14.73;4.57;;;;;;;;;;10140220;29;20216;-83
2021/01/13 20:53:59;;;;;;;19.80;4.97;;;;;;;;;;10144222;29;20239;-83
2021/01/13 20:59:01;;;;;;;15.90;4.33;;;;;;;;;;10145227;29;20222;-84
2021/01/13 21:04:03;;;;;;;10.13;2.80;;;;;;;;;;10135359;29;20247;-83
2021/01/13 21:09:05;;;;;;;10.07;2.40;;;;;;;;;;10100929;29;20217;-77
2021/01/13 21:14:08;;;;;;;11.47;3.10;;;;;;;;;;10135216;29;20220;-85
2021/01/13 21:19:10;;;;;;;12.10;2.97;;;;;;;;;;10116409;29;20227;-85
2021/01/13 21:24:13;;;;;;;8.47;2.50;;;;;;;;;;10142180;29;20243;-79
2021/01/13 21:29:15;;;;;;;10.17;2.73;;;;;;;;;;10129422;29;20227;-85
2021/01/13 21:34:18;;;;;;;11.70;2.80;;;;;;;;;;10150284;29;20323;-93
2021/01/13 21:39:21;;;;;;;11.23;2.50;;;;;;;;;;10180580;29;20222;-92
2021/01/13 21:44:24;;;;;;;8.57;2.80;;;;;;;;;;10170832;29;20742;-93
2021/01/13 21:49:26;;;;;;;16.67;3.47;;;;;;;;;;10154074;29;20239;-92
2021/01/13 21:54:31;;;;;;;15.00;3.57;;;;;;;;;;10155161;29;20215;-92
2021/01/13 21:59:32;;;;;;;16.83;3.73;;;;;;;;;;10155853;29;20231;-92
2021/01/13 22:04:35;;;;;;;17.57;4.07;;;;;;;;;;10155491;29;20247;-91
2021/01/13 22:09:38;;;;;;;14.50;3.43;;;;;;;;;;10164441;29;20215;-92
2021/01/13 22:14:40;;;;;;;18.90;3.60;;;;;;;;;;10170982;29;20216;-93
2021/01/13 22:19:42;;;;;;;15.23;2.70;;;;;;;;;;10173914;29;20247;-92
2021/01/13 22:24:44;;;;;;;11.33;2.30;;;;;;;;;;10170406;29;20271;-92
2021/01/13 22:29:47;;;;;;;15.33;2.70;;;;;;;;;;10174418;29;20241;-91
2021/01/13 22:34:48;;;;;;;11.40;2.20;;;;;;;;;;10176596;29;20230;-93
2021/01/13 22:39:52;;;;;;;10.00;2.50;;;;;;;;;;10168429;29;20311;-91
2021/01/13 22:44:53;;;;;;;9.37;2.40;;;;;;;;;;10181777;29;20245;-94
2021/01/13 22:49:55;;;;;;;9.40;2.70;;;;;;;;;;10190241;29;20212;-93
2021/01/13 22:54:58;;;;;;;10.20;2.10;;;;;;;;;;10195737;29;20448;-95
2021/01/13 23:00:00;;;;;;;13.47;2.67;;;;;;;;;;10183433;29;20224;-93
2021/01/13 23:05:03;;;;;;;10.07;2.70;;;;;;;;;;10176032;29;20248;-92
2021/01/13 23:10:07;;;;;;;10.33;3.20;;;;;;;;;;10162797;29;20593;-93
2021/01/13 23:15:09;;;;;;;10.37;2.60;;;;;;;;;;10169671;29;20231;-92
2021/01/13 23:20:11;;;;;;;8.57;2.30;;;;;;;;;;10170409;29;20230;-92
2021/01/13 23:25:18;;;;;;;8.97;2.17;;;;;;;;;;10174845;29;20279;-92
2021/01/13 23:30:21;;;;;;;13.67;2.20;;;;;;;;;;10178880;29;20787;-94
2021/01/13 23:35:26;;;;;;;12.73;2.50;;;;;;;;;;10168659;29;20216;-92
2021/01/13 23:40:29;;;;;;;12.90;2.37;;;;;;;;;;10183465;29;20212;-91
2021/01/13 23:45:31;;;;;;;8.63;2.30;;;;;;;;;;10189302;29;20231;-92
2021/01/13 23:50:33;;;;;;;12.93;2.30;;;;;;;;;;10200737;29;20279;-93
2021/01/13 23:55:36;;;;;;;9.60;2.47;;;;;;;;;;10178182;29;20212;-93
